createdAt,value
2022-10-01T00:04:11.492Z,79.20
2022-10-01T00:06:59.147Z,79.30
2022-10-01T00:09:42.094Z,79.13
2022-10-01T00:12:24.903Z,78.88
2022-10-01T00:15:13.345Z,78.80
2022-10-01T00:17:56.485Z,79.00
2022-10-01T00:20:43.469Z,78.94
2022-10-01T00:23:27.706Z,78.79
2022-10-01T00:26:13.426Z,78.92
2022-10-01T00:28:58.247Z,78.69
2022-10-01T00:31:41.233Z,79.00
2022-10-01T00:34:24.902Z,79.01
2022-10-01T00:37:10.341Z,79.15
2022-10-01T00:39:54.576Z,79.02
2022-10-01T00:42:37.434Z,79.04
2022-10-01T00:45:20.319Z,78.95
2022-10-01T00:48:03.198Z,79.16
2022-10-01T00:50:49.103Z,79.23
2022-10-01T00:53:31.991Z,79.45
2022-10-01T00:56:16.229Z,79.64
2022-10-01T00:59:00.249Z,79.70
2022-10-01T01:01:43.245Z,79.85
2022-10-01T01:04:26.417Z,79.76
2022-10-01T01:07:10.683Z,79.93
2022-10-01T01:09:55.235Z,79.92
2022-10-01T01:12:52.333Z,79.83
2022-10-01T01:15:38.535Z,79.82
2022-10-01T01:18:28.443Z,79.90
2022-10-01T01:21:20.917Z,80.10
2022-10-01T01:24:23.056Z,79.96
2022-10-01T01:27:20.395Z,79.76
2022-10-01T01:30:09.052Z,79.71
2022-10-01T01:33:03.242Z,79.54
2022-10-01T01:35:52.122Z,79.46
2022-10-01T01:38:45.098Z,79.44
2022-10-01T01:41:30.672Z,79.79
2022-10-01T01:44:17.667Z,79.64
2022-10-01T01:47:05.160Z,79.79
2022-10-01T01:49:48.774Z,79.82
2022-10-01T01:52:31.969Z,79.89
2022-10-01T01:55:14.837Z,79.81
2022-10-01T01:57:58.514Z,79.84
2022-10-01T02:00:41.503Z,79.81
2022-10-01T02:03:29.471Z,79.71
2022-10-01T02:06:21.829Z,79.62
2022-10-01T02:09:12.198Z,79.60
2022-10-01T02:12:02.855Z,79.28
2022-10-01T02:14:53.436Z,79.27
2022-10-01T02:17:46.475Z,79.08
2022-10-01T02:20:35.994Z,79.05
2022-10-01T02:23:23.403Z,78.90
2022-10-01T02:26:11.943Z,78.99
2022-10-01T02:29:00.219Z,78.92
2022-10-01T02:31:43.215Z,78.97
2022-10-01T02:34:30.566Z,78.90
2022-10-01T02:37:15.607Z,78.90
2022-10-01T02:40:00.455Z,79.00
2022-10-01T02:42:46.647Z,79.08
2022-10-01T02:45:35.133Z,78.98
2022-10-01T02:48:18.904Z,78.80
2022-10-01T02:51:13.615Z,78.95
2022-10-01T02:54:04.342Z,78.93
2022-10-01T02:57:05.895Z,78.94
2022-10-01T02:59:48.919Z,78.85
2022-10-01T03:02:33.137Z,78.86
2022-10-01T03:05:16.771Z,78.77
2022-10-01T03:07:59.655Z,78.88
2022-10-01T03:10:46.734Z,78.59
2022-10-01T03:13:29.839Z,78.76
2022-10-01T03:16:12.724Z,78.69
2022-10-01T03:18:55.687Z,78.75
2022-10-01T03:21:38.524Z,78.83
2022-10-01T03:24:21.415Z,78.68
2022-10-01T03:27:05.658Z,78.68
2022-10-01T03:29:48.937Z,78.63
2022-10-01T03:32:31.883Z,78.63
2022-10-01T03:35:14.818Z,78.40
2022-10-01T03:37:58.439Z,78.34
2022-10-01T03:40:41.298Z,78.38
2022-10-01T03:43:28.915Z,78.45
2022-10-01T03:46:12.206Z,78.44
2022-10-01T03:48:57.230Z,78.34
2022-10-01T03:51:40.131Z,78.26
2022-10-01T03:54:23.267Z,78.37
2022-10-01T03:57:06.163Z,78.50
2022-10-01T03:59:50.363Z,78.54
2022-10-01T04:02:33.309Z,78.58
2022-10-01T04:05:16.336Z,78.72
2022-10-01T04:07:59.766Z,78.62
2022-10-01T04:10:43.227Z,78.63
2022-10-01T04:13:26.166Z,78.72
2022-10-01T04:16:10.910Z,78.83
2022-10-01T04:18:53.624Z,79.26
2022-10-01T04:21:36.965Z,78.95
2022-10-01T04:24:20.206Z,78.95
2022-10-01T04:27:03.059Z,78.99
2022-10-01T04:29:45.979Z,78.99
2022-10-01T04:32:30.204Z,79.01
2022-10-01T04:35:13.117Z,79.11
2022-10-01T04:38:01.969Z,79.20
2022-10-01T04:40:45.097Z,79.19
2022-10-01T04:43:27.997Z,79.13
2022-10-01T04:46:10.842Z,78.97
2022-10-01T04:48:55.120Z,79.08
2022-10-01T04:51:37.936Z,79.07
2022-10-01T04:54:20.792Z,79.28
2022-10-01T04:57:03.602Z,79.23
2022-10-01T04:59:46.483Z,79.45
2022-10-01T05:02:29.432Z,79.55
2022-10-01T05:05:13.718Z,79.54
2022-10-01T05:07:56.692Z,79.75
2022-10-01T05:10:39.655Z,79.60
2022-10-01T05:13:22.527Z,79.71
2022-10-01T05:16:05.616Z,79.73
2022-10-01T05:18:48.783Z,79.55
2022-10-01T05:21:33.227Z,79.84
2022-10-01T05:24:16.111Z,80.16
2022-10-01T05:26:58.962Z,80.12
2022-10-01T05:29:41.963Z,80.38
2022-10-01T05:32:25.007Z,79.98
2022-10-01T05:35:09.512Z,80.11
2022-10-01T05:37:58.151Z,80.33
2022-10-01T05:40:40.976Z,80.35
2022-10-01T05:43:25.502Z,80.32
2022-10-01T05:46:10.356Z,80.80
2022-10-01T05:48:53.270Z,81.05
2022-10-01T05:51:36.682Z,81.33
2022-10-01T05:54:23.255Z,81.35
2022-10-01T05:57:06.546Z,81.63
2022-10-01T05:59:49.390Z,81.71
2022-10-01T06:02:32.268Z,81.78
2022-10-01T06:05:15.275Z,82.35
2022-10-01T06:07:58.771Z,82.03
2022-10-01T06:10:43.029Z,82.09
2022-10-01T06:13:26.449Z,82.12
2022-10-01T06:16:09.356Z,82.17
2022-10-01T06:18:57.341Z,82.61
2022-10-01T06:21:40.182Z,83.24
2022-10-01T06:24:22.970Z,83.53
2022-10-01T06:27:07.172Z,83.66
2022-10-01T06:29:50.015Z,83.65
2022-10-01T06:32:35.069Z,83.72
2022-10-01T06:35:20.308Z,83.86
2022-10-01T06:38:03.294Z,84.25
2022-10-01T06:40:46.178Z,84.08
2022-10-01T06:43:31.935Z,84.52
2022-10-01T06:46:14.795Z,84.33
2022-10-01T06:48:57.692Z,84.30
2022-10-01T06:51:58.190Z,84.39
2022-10-01T06:54:41.104Z,84.46
2022-10-01T06:57:23.999Z,84.33
2022-10-01T07:00:09.583Z,84.36
2022-10-01T07:02:52.961Z,84.18
2022-10-01T07:05:35.845Z,84.24
2022-10-01T07:08:18.874Z,84.31
2022-10-01T07:11:03.574Z,84.19
2022-10-01T07:13:49.038Z,84.16
2022-10-01T07:16:35.526Z,83.94
2022-10-01T07:19:18.349Z,84.05
2022-10-01T07:22:01.183Z,84.13
2022-10-01T07:24:44.045Z,83.89
2022-10-01T07:27:26.947Z,83.72
2022-10-01T07:30:10.708Z,83.72
2022-10-01T07:32:55.327Z,83.40
2022-10-01T07:35:38.850Z,83.42
2022-10-01T07:38:21.747Z,83.06
2022-10-01T07:41:04.763Z,82.90
2022-10-01T07:43:47.712Z,82.79
2022-10-01T07:46:34.588Z,82.69
2022-10-01T07:49:19.133Z,82.08
2022-10-01T07:52:02.391Z,82.01
2022-10-01T07:54:45.216Z,82.08
2022-10-01T07:57:28.118Z,82.23
2022-10-01T08:00:12.095Z,82.42
2022-10-01T08:02:56.336Z,82.62
2022-10-01T08:05:42.464Z,82.43
2022-10-01T08:08:25.352Z,82.21
2022-10-01T08:11:09.319Z,81.95
2022-10-01T08:13:52.744Z,81.83
2022-10-01T08:16:37.215Z,81.49
2022-10-01T08:19:20.136Z,81.11
2022-10-01T08:22:04.359Z,80.55
2022-10-01T08:24:47.866Z,80.61
2022-10-01T08:27:30.725Z,80.60
2022-10-01T08:30:13.571Z,80.57
2022-10-01T08:32:56.922Z,80.61
2022-10-01T08:35:40.640Z,80.76
2022-10-01T08:38:25.139Z,80.79
2022-10-01T08:41:20.124Z,80.60
2022-10-01T08:44:07.457Z,80.50
2022-10-01T08:46:52.222Z,80.49
2022-10-01T08:49:38.607Z,79.51
2022-10-01T08:52:25.889Z,79.83
2022-10-01T08:55:15.130Z,79.97
2022-10-01T08:58:03.411Z,80.21
2022-10-01T09:00:48.712Z,80.42
2022-10-01T09:03:32.716Z,80.30
2022-10-01T09:06:20.864Z,80.14
2022-10-01T09:09:27.322Z,79.71
2022-10-01T09:12:31.768Z,79.75
2022-10-01T09:15:28.062Z,79.62
2022-10-01T09:18:23.411Z,79.35
2022-10-01T09:21:13.280Z,79.18
2022-10-01T09:24:04.628Z,79.04
2022-10-01T09:26:49.479Z,78.52
2022-10-01T09:29:40.722Z,78.32
2022-10-01T09:32:26.737Z,78.42
2022-10-01T09:35:25.305Z,78.35
2022-10-01T09:38:16.743Z,78.22
2022-10-01T09:41:00.341Z,78.41
2022-10-01T09:43:45.011Z,78.73
2022-10-01T09:46:29.022Z,77.48
2022-10-01T09:49:20.133Z,77.75
2022-10-01T09:52:08.353Z,77.89
2022-10-01T09:54:58.693Z,78.09
2022-10-01T09:57:45.858Z,77.88
2022-10-01T10:00:29.097Z,77.46
2022-10-01T10:03:23.709Z,77.24
2022-10-01T10:06:07.194Z,77.04
2022-10-01T10:08:50.122Z,76.90
2022-10-01T10:11:35.198Z,77.44
2022-10-01T10:14:23.399Z,77.46
2022-10-01T10:17:08.546Z,77.19
2022-10-01T10:19:53.790Z,77.02
2022-10-01T10:22:37.054Z,77.26
2022-10-01T10:25:24.444Z,77.25
2022-10-01T10:28:20.378Z,76.90
2022-10-01T10:31:03.434Z,76.37
2022-10-01T10:33:48.956Z,76.64
2022-10-01T10:36:36.768Z,76.68
2022-10-01T10:39:24.976Z,76.35
2022-10-01T10:42:08.676Z,76.19
2022-10-01T10:44:54.616Z,75.67
2022-10-01T10:47:46.236Z,75.53
2022-10-01T10:50:34.979Z,75.54
2022-10-01T10:53:24.323Z,75.48
2022-10-01T10:56:15.076Z,75.00
2022-10-01T10:59:09.165Z,74.80
2022-10-01T11:01:52.837Z,74.65
2022-10-01T11:04:42.559Z,73.17
2022-10-01T11:07:27.338Z,73.20
2022-10-01T11:10:22.918Z,71.83
2022-10-01T11:13:36.131Z,72.88
2022-10-01T11:16:37.500Z,72.80
2022-10-01T11:19:36.659Z,72.63
2022-10-01T11:22:37.072Z,72.66
2022-10-01T11:25:31.692Z,72.83
2022-10-01T11:28:30.518Z,72.72
2022-10-01T11:31:24.838Z,72.63
2022-10-01T11:34:39.875Z,72.91
2022-10-01T11:37:39.090Z,73.46
2022-10-01T11:40:28.151Z,74.20
2022-10-01T11:43:20.272Z,73.82
2022-10-01T11:46:08.508Z,74.43
2022-10-01T11:48:57.277Z,74.97
2022-10-01T11:51:44.600Z,75.29
2022-10-01T11:54:32.324Z,75.52
2022-10-01T11:57:35.742Z,76.07
2022-10-01T12:00:34.041Z,76.33
2022-10-01T12:03:36.392Z,76.58
2022-10-01T12:06:31.675Z,76.88
2022-10-01T12:09:27.856Z,77.26
2022-10-01T12:12:23.434Z,77.69
2022-10-01T12:15:23.311Z,77.93
2022-10-01T12:18:25.140Z,78.09
2022-10-01T12:21:27.682Z,78.69
2022-10-01T12:24:22.545Z,78.90
2022-10-01T12:27:33.545Z,79.91
2022-10-01T12:30:48.373Z,79.95
2022-10-01T12:34:14.088Z,80.05
2022-10-01T12:37:10.574Z,79.68
2022-10-01T12:40:18.510Z,79.98
2022-10-01T12:43:30.228Z,80.69
2022-10-01T12:46:36.079Z,81.01
2022-10-01T12:49:28.187Z,80.92
2022-10-01T12:52:30.791Z,81.44
2022-10-01T12:55:30.835Z,81.24
2022-10-01T12:58:35.519Z,81.94
2022-10-01T13:01:32.310Z,82.04
2022-10-01T13:04:55.372Z,82.29
2022-10-01T13:08:05.812Z,82.75
2022-10-01T13:11:22.905Z,82.65
2022-10-01T13:14:19.456Z,82.74
2022-10-01T13:17:13.660Z,83.32
2022-10-01T13:20:18.743Z,83.63
2022-10-01T13:23:12.387Z,84.21
2022-10-01T13:26:11.605Z,84.56
2022-10-01T13:32:30.288Z,83.75
2022-10-01T13:35:36.523Z,84.26
2022-10-01T13:38:56.383Z,84.11
2022-10-01T13:41:57.105Z,83.66
2022-10-01T13:44:50.568Z,83.90
2022-10-01T13:47:47.795Z,84.00
2022-10-01T13:50:42.857Z,84.76
2022-10-01T13:53:33.735Z,85.30
2022-10-01T13:56:37.863Z,84.92
2022-10-01T14:02:49.806Z,85.06
2022-10-01T14:05:52.611Z,85.51
2022-10-01T14:09:14.033Z,84.92
2022-10-01T14:12:24.215Z,85.39
2022-10-01T14:15:37.829Z,85.64
2022-10-01T14:18:51.344Z,85.70
2022-10-01T14:21:56.452Z,85.52
2022-10-01T14:25:04.375Z,85.90
2022-10-01T14:28:25.748Z,85.97
2022-10-01T14:31:22.771Z,85.89
2022-10-01T14:34:41.724Z,86.54
2022-10-01T14:37:28.966Z,86.34
2022-10-01T14:40:20.886Z,86.46
2022-10-01T14:43:20.303Z,86.62
2022-10-01T14:46:17.987Z,86.66
2022-10-01T14:49:45.710Z,86.75
2022-10-01T14:52:39.728Z,86.31
2022-10-01T14:55:42.077Z,86.58
2022-10-01T14:58:37.737Z,86.45
2022-10-01T15:01:46.494Z,86.83
2022-10-01T15:04:58.551Z,86.70
2022-10-01T15:07:54.550Z,86.69
2022-10-01T15:10:48.224Z,86.70
2022-10-01T15:17:07.176Z,86.76
2022-10-01T15:20:18.443Z,86.76
2022-10-01T15:23:24.773Z,86.97
2022-10-01T15:26:31.343Z,87.05
2022-10-01T15:33:35.850Z,87.30
2022-10-01T15:36:30.148Z,86.80
2022-10-01T15:39:36.016Z,87.09
2022-10-01T15:42:38.966Z,87.60
2022-10-01T15:45:31.304Z,87.73
2022-10-01T15:48:37.084Z,87.50
2022-10-01T15:51:33.776Z,87.58
2022-10-01T15:54:30.220Z,87.60
2022-10-01T15:57:33.548Z,87.68
2022-10-01T16:09:50.282Z,87.98
2022-10-01T16:12:34.541Z,87.94
2022-10-01T16:15:29.756Z,88.64
2022-10-01T16:18:23.124Z,88.21
2022-10-01T16:21:09.198Z,88.13
2022-10-01T16:23:54.083Z,87.77
2022-10-01T16:26:39.284Z,88.02
2022-10-01T16:29:27.320Z,87.94
2022-10-01T16:32:15.001Z,87.99
2022-10-01T16:35:17.058Z,88.11
2022-10-01T16:38:00.318Z,87.77
2022-10-01T16:40:45.856Z,87.83
2022-10-01T16:43:28.770Z,87.90
2022-10-01T16:46:13.011Z,87.76
2022-10-01T16:48:55.914Z,87.97
2022-10-01T16:51:40.941Z,87.84
2022-10-01T16:54:26.626Z,87.95
2022-10-01T16:57:09.491Z,87.82
2022-10-01T16:59:52.366Z,87.98
2022-10-01T17:02:36.876Z,87.77
2022-10-01T17:05:22.555Z,87.67
2022-10-01T17:08:11.407Z,87.68
2022-10-01T17:10:58.645Z,87.54
2022-10-01T17:13:42.291Z,87.75
2022-10-01T17:16:25.310Z,87.73
2022-10-01T17:19:09.675Z,87.59
2022-10-01T17:21:53.246Z,87.91
2022-10-01T17:24:36.066Z,87.51
2022-10-01T17:27:18.927Z,87.80
2022-10-01T17:30:01.835Z,87.68
2022-10-01T17:32:45.051Z,87.88
2022-10-01T17:35:30.543Z,87.88
2022-10-01T17:38:13.988Z,87.78
2022-10-01T17:40:57.040Z,87.67
2022-10-01T17:43:41.321Z,87.72
2022-10-01T17:46:24.212Z,87.72
2022-10-01T17:49:08.845Z,87.81
2022-10-01T17:51:53.478Z,87.69
2022-10-01T17:54:37.566Z,87.60
2022-10-01T17:57:20.948Z,87.74
2022-10-01T18:00:04.688Z,87.91
2022-10-01T18:02:55.303Z,87.64
2022-10-01T18:05:38.215Z,87.87
2022-10-01T18:08:33.295Z,87.55
2022-10-01T18:11:26.225Z,87.68
2022-10-01T18:14:09.443Z,87.52
2022-10-01T18:16:52.597Z,87.77
2022-10-01T18:22:39.275Z,87.54
2022-10-01T18:25:23.450Z,87.87
2022-10-01T18:28:06.375Z,87.66
2022-10-01T18:30:50.544Z,87.48
2022-10-01T18:33:33.458Z,87.74
2022-10-01T18:36:23.972Z,87.65
2022-10-01T18:39:15.146Z,87.70
2022-10-01T18:41:59.660Z,87.81
2022-10-01T18:44:42.800Z,87.61
2022-10-01T18:47:35.771Z,87.52
2022-10-01T18:50:25.811Z,87.82
2022-10-01T18:53:25.843Z,87.77
2022-10-01T18:56:24.666Z,87.60
2022-10-01T18:59:34.236Z,87.91
2022-10-01T19:02:25.982Z,87.89
2022-10-01T19:05:42.285Z,87.76
2022-10-01T19:08:39.727Z,87.63
2022-10-01T19:11:29.961Z,87.73
2022-10-01T19:14:39.519Z,87.49
2022-10-01T19:17:44.206Z,87.38
2022-10-01T19:20:45.808Z,88.09
2022-10-01T19:23:55.583Z,87.65
2022-10-01T19:26:45.207Z,87.48
2022-10-01T19:29:44.150Z,87.20
2022-10-01T19:32:34.574Z,87.20
2022-10-01T19:35:20.796Z,87.08
2022-10-01T19:38:07.497Z,87.19
2022-10-01T19:40:55.777Z,87.23
2022-10-01T19:43:43.306Z,87.05
2022-10-01T19:46:33.167Z,87.38
2022-10-01T19:49:22.331Z,87.14
2022-10-01T19:52:13.099Z,87.02
2022-10-01T19:55:00.296Z,86.96
2022-10-01T19:57:45.192Z,87.02
2022-10-01T20:00:28.055Z,86.90
2022-10-01T20:03:18.041Z,86.96
2022-10-01T20:06:08.686Z,86.51
2022-10-01T20:08:53.724Z,86.89
2022-10-01T20:11:41.690Z,87.12
2022-10-01T20:14:54.555Z,87.14
2022-10-01T20:17:54.723Z,86.84
2022-10-01T20:20:43.974Z,86.92
2022-10-01T20:23:47.587Z,86.97
2022-10-01T20:26:36.748Z,86.93
2022-10-01T20:29:39.436Z,86.98
2022-10-01T20:32:28.332Z,86.99
2022-10-01T20:35:28.629Z,86.98
2022-10-01T20:38:16.144Z,87.16
2022-10-01T20:41:06.661Z,87.46
2022-10-01T20:43:52.854Z,87.24
2022-10-01T20:46:39.351Z,87.09
2022-10-01T20:49:27.975Z,87.05
2022-10-01T20:52:21.506Z,87.14
2022-10-01T20:55:07.853Z,87.17
2022-10-01T20:57:55.742Z,87.09
2022-10-01T21:00:39.483Z,87.07
2022-10-01T21:03:27.420Z,86.81
2022-10-01T21:06:15.087Z,86.59
2022-10-01T21:09:01.844Z,86.08
2022-10-01T21:11:47.157Z,85.85
2022-10-01T21:14:36.684Z,85.32
2022-10-01T21:17:31.642Z,85.26
2022-10-01T21:20:44.188Z,84.99
2022-10-01T21:23:39.604Z,85.22
2022-10-01T21:26:29.266Z,85.19
2022-10-01T21:29:31.372Z,85.31
2022-10-01T21:32:30.237Z,85.43
2022-10-01T21:35:22.514Z,85.36
2022-10-01T21:38:12.710Z,85.33
2022-10-01T21:41:09.388Z,85.29
2022-10-01T21:44:11.267Z,85.23
2022-10-01T21:46:59.577Z,85.27
2022-10-01T21:49:55.850Z,85.18
2022-10-01T21:52:47.429Z,85.31
2022-10-01T21:55:55.641Z,85.08
2022-10-01T21:58:50.725Z,85.04
2022-10-01T22:01:50.525Z,84.83
2022-10-01T22:04:40.983Z,84.97
2022-10-01T22:07:32.809Z,85.02
2022-10-01T22:10:18.418Z,84.96
2022-10-01T22:13:04.821Z,84.86
2022-10-01T22:15:49.935Z,84.96
2022-10-01T22:18:37.881Z,85.01
2022-10-01T22:21:29.043Z,85.08
2022-10-01T22:24:17.557Z,84.88
2022-10-01T22:27:06.597Z,84.59
2022-10-01T22:29:56.294Z,84.57
2022-10-01T22:32:44.499Z,84.58
2022-10-01T22:35:31.964Z,84.58
2022-10-01T22:38:22.073Z,84.31
2022-10-01T22:41:11.193Z,84.34
2022-10-01T22:43:54.306Z,84.45
2022-10-01T22:47:01.374Z,84.46
2022-10-01T22:50:05.045Z,84.40
2022-10-01T22:53:00.417Z,84.34
2022-10-01T22:55:53.418Z,84.37
2022-10-01T22:58:53.116Z,84.34
2022-10-01T23:01:45.453Z,84.40
2022-10-01T23:04:41.483Z,84.39
2022-10-01T23:07:31.372Z,84.24
2022-10-01T23:10:20.665Z,84.26
2022-10-01T23:13:15.259Z,84.12
2022-10-01T23:16:05.932Z,84.08
2022-10-01T23:18:59.829Z,84.07
2022-10-01T23:25:56.687Z,84.22
2022-10-01T23:28:54.925Z,84.21
2022-10-01T23:31:44.597Z,84.17
2022-10-01T23:34:37.631Z,84.02
2022-10-01T23:37:53.406Z,84.08
2022-10-01T23:40:40.204Z,84.19
2022-10-01T23:43:27.482Z,84.24
2022-10-01T23:46:15.414Z,84.36
2022-10-01T23:49:05.448Z,84.34
2022-10-01T23:51:54.112Z,84.32
2022-10-01T23:54:40.069Z,84.25
2022-10-01T23:57:28.305Z,84.20
